sensor_id;sensor_type;location;lat;lon;timestamp;temperature;humidity
20891;DHT22;10605;52.968;8.844;2024-01-06T00:02:16;2.60;99.90
20891;DHT22;10605;52.968;8.844;2024-01-06T00:04:41;2.60;99.90
20891;DHT22;10605;52.968;8.844;2024-01-06T00:07:07;2.60;99.90
20891;DHT22;10605;52.968;8.844;2024-01-06T00:09:32;2.60;99.90
20891;DHT22;10605;52.968;8.844;2024-01-06T00:11:58;2.60;99.90
20891;DHT22;10605;52.968;8.844;2024-01-06T00:14:24;2.60;99.90
20891;DHT22;10605;52.968;8.844;2024-01-06T00:16:49;2.60;99.90
20891;DHT22;10605;52.968;8.844;2024-01-06T00:19:15;2.60;99.90
20891;DHT22;10605;52.968;8.844;2024-01-06T00:21:43;2.60;99.90
20891;DHT22;10605;52.968;8.844;2024-01-06T00:24:08;2.50;99.90
20891;DHT22;10605;52.968;8.844;2024-01-06T00:26:34;2.60;99.90
20891;DHT22;10605;52.968;8.844;2024-01-06T00:29:00;2.50;99.90
20891;DHT22;10605;52.968;8.844;2024-01-06T00:31:25;2.50;99.90
20891;DHT22;10605;52.968;8.844;2024-01-06T00:33:51;2.50;99.90
20891;DHT22;10605;52.968;8.844;2024-01-06T00:36:16;2.60;99.90
20891;DHT22;10605;52.968;8.844;2024-01-06T00:38:42;2.60;99.90
20891;DHT22;10605;52.968;8.844;2024-01-06T00:41:07;2.60;99.90
20891;DHT22;10605;52.968;8.844;2024-01-06T00:43:33;2.60;99.90
20891;DHT22;10605;52.968;8.844;2024-01-06T00:45:59;2.60;99.90
20891;DHT22;10605;52.968;8.844;2024-01-06T00:48:24;2.50;99.90
20891;DHT22;10605;52.968;8.844;2024-01-06T00:50:50;2.60;99.90
20891;DHT22;10605;52.968;8.844;2024-01-06T00:53:16;2.50;99.90
20891;DHT22;10605;52.968;8.844;2024-01-06T00:55:41;2.50;99.90
20891;DHT22;10605;52.968;8.844;2024-01-06T00:58:07;2.50;99.90
20891;DHT22;10605;52.968;8.844;2024-01-06T01:00:34;2.50;99.90
20891;DHT22;10605;52.968;8.844;2024-01-06T01:02:59;2.50;99.90
20891;DHT22;10605;52.968;8.844;2024-01-06T01:05:25;2.50;99.90
20891;DHT22;10605;52.968;8.844;2024-01-06T01:07:50;2.50;99.90
20891;DHT22;10605;52.968;8.844;2024-01-06T01:10:16;2.50;99.90
20891;DHT22;10605;52.968;8.844;2024-01-06T01:12:42;2.50;99.90
20891;DHT22;10605;52.968;8.844;2024-01-06T01:15:08;2.50;99.90
20891;DHT22;10605;52.968;8.844;2024-01-06T01:17:33;2.50;99.90
20891;DHT22;10605;52.968;8.844;2024-01-06T01:19:59;2.50;99.90
20891;DHT22;10605;52.968;8.844;2024-01-06T01:22:24;2.50;99.90
20891;DHT22;10605;52.968;8.844;2024-01-06T01:24:50;2.50;99.90
20891;DHT22;10605;52.968;8.844;2024-01-06T01:27:16;2.50;99.90
20891;DHT22;10605;52.968;8.844;2024-01-06T01:29:41;2.50;99.90
20891;DHT22;10605;52.968;8.844;2024-01-06T01:32:07;2.50;99.90
20891;DHT22;10605;52.968;8.844;2024-01-06T01:34:33;2.50;99.90
20891;DHT22;10605;52.968;8.844;2024-01-06T01:36:59;2.50;99.90
20891;DHT22;10605;52.968;8.844;2024-01-06T01:39:25;2.50;99.90
20891;DHT22;10605;52.968;8.844;2024-01-06T01:41:50;2.50;99.90
20891;DHT22;10605;52.968;8.844;2024-01-06T01:44:16;2.50;99.90
20891;DHT22;10605;52.968;8.844;2024-01-06T01:46:42;2.50;99.90
20891;DHT22;10605;52.968;8.844;2024-01-06T01:49:07;2.50;99.90
20891;DHT22;10605;52.968;8.844;2024-01-06T01:51:34;2.50;99.90
20891;DHT22;10605;52.968;8.844;2024-01-06T01:54:01;2.40;99.90
20891;DHT22;10605;52.968;8.844;2024-01-06T01:56:28;2.50;99.90
20891;DHT22;10605;52.968;8.844;2024-01-06T01:58:54;2.50;99.90
20891;DHT22;10605;52.968;8.844;2024-01-06T02:01:20;2.50;99.90
20891;DHT22;10605;52.968;8.844;2024-01-06T02:03:46;2.40;99.90
20891;DHT22;10605;52.968;8.844;2024-01-06T02:06:12;2.50;99.90
20891;DHT22;10605;52.968;8.844;2024-01-06T02:08:38;2.40;99.90
20891;DHT22;10605;52.968;8.844;2024-01-06T02:11:05;2.40;99.90
20891;DHT22;10605;52.968;8.844;2024-01-06T02:13:34;2.40;99.90
20891;DHT22;10605;52.968;8.844;2024-01-06T02:16:01;2.40;99.90
20891;DHT22;10605;52.968;8.844;2024-01-06T02:18:27;2.40;99.90
20891;DHT22;10605;52.968;8.844;2024-01-06T02:20:55;2.50;99.90
20891;DHT22;10605;52.968;8.844;2024-01-06T02:23:22;2.50;99.90
20891;DHT22;10605;52.968;8.844;2024-01-06T02:25:47;2.40;99.90
20891;DHT22;10605;52.968;8.844;2024-01-06T02:28:13;2.40;99.90
20891;DHT22;10605;52.968;8.844;2024-01-06T02:30:39;2.40;99.90
20891;DHT22;10605;52.968;8.844;2024-01-06T02:33:05;2.40;99.90
20891;DHT22;10605;52.968;8.844;2024-01-06T02:35:30;2.40;99.90
20891;DHT22;10605;52.968;8.844;2024-01-06T02:37:56;2.40;99.90
20891;DHT22;10605;52.968;8.844;2024-01-06T02:40:21;2.40;99.90
20891;DHT22;10605;52.968;8.844;2024-01-06T02:42:47;2.30;99.90
20891;DHT22;10605;52.968;8.844;2024-01-06T02:45:12;2.30;99.90
20891;DHT22;10605;52.968;8.844;2024-01-06T02:47:38;2.30;99.90
20891;DHT22;10605;52.968;8.844;2024-01-06T02:50:05;2.30;99.90
20891;DHT22;10605;52.968;8.844;2024-01-06T02:52:30;2.20;99.90
20891;DHT22;10605;52.968;8.844;2024-01-06T02:54:56;2.20;99.90
20891;DHT22;10605;52.968;8.844;2024-01-06T02:57:22;2.20;99.90
20891;DHT22;10605;52.968;8.844;2024-01-06T02:59:47;2.30;99.90
20891;DHT22;10605;52.968;8.844;2024-01-06T03:02:13;2.20;99.90
20891;DHT22;10605;52.968;8.844;2024-01-06T03:04:39;2.20;99.90
20891;DHT22;10605;52.968;8.844;2024-01-06T03:07:04;2.20;99.90
20891;DHT22;10605;52.968;8.844;2024-01-06T03:09:30;2.20;99.90
20891;DHT22;10605;52.968;8.844;2024-01-06T03:11:55;2.10;99.90
20891;DHT22;10605;52.968;8.844;2024-01-06T03:14:21;2.10;99.90
20891;DHT22;10605;52.968;8.844;2024-01-06T03:16:47;2.10;99.90
20891;DHT22;10605;52.968;8.844;2024-01-06T03:19:12;2.20;99.90
20891;DHT22;10605;52.968;8.844;2024-01-06T03:21:38;2.10;99.90
20891;DHT22;10605;52.968;8.844;2024-01-06T03:24:06;2.10;99.90
20891;DHT22;10605;52.968;8.844;2024-01-06T03:26:32;2.10;99.90
20891;DHT22;10605;52.968;8.844;2024-01-06T03:28:59;2.10;99.90
20891;DHT22;10605;52.968;8.844;2024-01-06T03:31:24;2.00;99.90
20891;DHT22;10605;52.968;8.844;2024-01-06T03:33:50;2.00;99.90
20891;DHT22;10605;52.968;8.844;2024-01-06T03:36:19;2.10;99.90
20891;DHT22;10605;52.968;8.844;2024-01-06T03:38:44;2.10;99.90
20891;DHT22;10605;52.968;8.844;2024-01-06T03:41:10;2.10;99.90
20891;DHT22;10605;52.968;8.844;2024-01-06T03:43:35;2.10;99.90
20891;DHT22;10605;52.968;8.844;2024-01-06T03:46:01;2.10;99.90
20891;DHT22;10605;52.968;8.844;2024-01-06T03:48:27;2.00;99.90
20891;DHT22;10605;52.968;8.844;2024-01-06T03:50:52;2.00;99.90
20891;DHT22;10605;52.968;8.844;2024-01-06T03:53:18;2.00;99.90
20891;DHT22;10605;52.968;8.844;2024-01-06T03:55:43;2.00;99.90
20891;DHT22;10605;52.968;8.844;2024-01-06T03:58:09;2.00;99.90
20891;DHT22;10605;52.968;8.844;2024-01-06T04:00:35;1.90;99.90
20891;DHT22;10605;52.968;8.844;2024-01-06T04:03:01;1.90;99.90
20891;DHT22;10605;52.968;8.844;2024-01-06T04:05:26;1.80;99.90
20891;DHT22;10605;52.968;8.844;2024-01-06T04:07:52;1.90;99.90
20891;DHT22;10605;52.968;8.844;2024-01-06T04:10:18;1.80;99.90
20891;DHT22;10605;52.968;8.844;2024-01-06T04:12:43;1.90;99.90
20891;DHT22;10605;52.968;8.844;2024-01-06T04:15:09;1.80;99.90
20891;DHT22;10605;52.968;8.844;2024-01-06T04:17:34;1.80;99.90
20891;DHT22;10605;52.968;8.844;2024-01-06T04:20:00;1.80;99.90
20891;DHT22;10605;52.968;8.844;2024-01-06T04:22:26;1.80;99.90
20891;DHT22;10605;52.968;8.844;2024-01-06T04:24:51;1.80;99.90
20891;DHT22;10605;52.968;8.844;2024-01-06T04:27:17;1.80;99.90
20891;DHT22;10605;52.968;8.844;2024-01-06T04:29:43;1.80;99.90
20891;DHT22;10605;52.968;8.844;2024-01-06T04:32:09;1.80;99.90
20891;DHT22;10605;52.968;8.844;2024-01-06T04:34:34;1.80;99.90
20891;DHT22;10605;52.968;8.844;2024-01-06T04:37:00;1.80;99.90
20891;DHT22;10605;52.968;8.844;2024-01-06T04:39:26;1.80;99.90
20891;DHT22;10605;52.968;8.844;2024-01-06T04:41:51;1.80;99.90
20891;DHT22;10605;52.968;8.844;2024-01-06T04:44:20;1.80;99.90
20891;DHT22;10605;52.968;8.844;2024-01-06T04:46:46;1.90;99.90
20891;DHT22;10605;52.968;8.844;2024-01-06T04:49:11;1.90;99.90
20891;DHT22;10605;52.968;8.844;2024-01-06T04:51:37;1.80;99.90
20891;DHT22;10605;52.968;8.844;2024-01-06T04:54:03;1.90;99.90
20891;DHT22;10605;52.968;8.844;2024-01-06T04:56:28;1.80;99.90
20891;DHT22;10605;52.968;8.844;2024-01-06T04:58:54;1.80;99.90
20891;DHT22;10605;52.968;8.844;2024-01-06T05:01:20;1.80;99.90
20891;DHT22;10605;52.968;8.844;2024-01-06T05:03:45;1.80;99.90
20891;DHT22;10605;52.968;8.844;2024-01-06T05:06:12;1.80;99.90
20891;DHT22;10605;52.968;8.844;2024-01-06T05:08:37;1.80;99.90
20891;DHT22;10605;52.968;8.844;2024-01-06T05:11:10;1.90;99.90
20891;DHT22;10605;52.968;8.844;2024-01-06T05:13:36;1.90;99.90
20891;DHT22;10605;52.968;8.844;2024-01-06T05:16:01;1.90;99.90
20891;DHT22;10605;52.968;8.844;2024-01-06T05:18:27;1.90;99.90
20891;DHT22;10605;52.968;8.844;2024-01-06T05:20:53;1.90;99.90
20891;DHT22;10605;52.968;8.844;2024-01-06T05:23:19;1.90;99.90
20891;DHT22;10605;52.968;8.844;2024-01-06T05:25:44;1.90;99.90
20891;DHT22;10605;52.968;8.844;2024-01-06T05:28:10;1.90;99.90
20891;DHT22;10605;52.968;8.844;2024-01-06T05:30:36;1.90;99.90
20891;DHT22;10605;52.968;8.844;2024-01-06T05:33:01;1.90;99.90
20891;DHT22;10605;52.968;8.844;2024-01-06T05:35:28;2.00;99.90
20891;DHT22;10605;52.968;8.844;2024-01-06T05:37:53;1.90;99.90
20891;DHT22;10605;52.968;8.844;2024-01-06T05:40:19;1.90;99.90
20891;DHT22;10605;52.968;8.844;2024-01-06T05:42:45;1.90;99.90
20891;DHT22;10605;52.968;8.844;2024-01-06T05:45:11;1.90;99.90
20891;DHT22;10605;52.968;8.844;2024-01-06T05:47:39;1.90;99.90
20891;DHT22;10605;52.968;8.844;2024-01-06T05:50:06;1.90;99.90
20891;DHT22;10605;52.968;8.844;2024-01-06T05:52:34;1.90;99.90
20891;DHT22;10605;52.968;8.844;2024-01-06T05:55:00;1.90;99.90
20891;DHT22;10605;52.968;8.844;2024-01-06T05:57:25;1.90;99.90
20891;DHT22;10605;52.968;8.844;2024-01-06T05:59:51;1.90;99.90
20891;DHT22;10605;52.968;8.844;2024-01-06T06:02:16;1.90;99.90
20891;DHT22;10605;52.968;8.844;2024-01-06T06:04:42;1.90;99.90
20891;DHT22;10605;52.968;8.844;2024-01-06T06:07:08;1.80;99.90
20891;DHT22;10605;52.968;8.844;2024-01-06T06:09:33;1.80;99.90
20891;DHT22;10605;52.968;8.844;2024-01-06T06:12:00;1.90;99.90
20891;DHT22;10605;52.968;8.844;2024-01-06T06:14:25;1.80;99.90
20891;DHT22;10605;52.968;8.844;2024-01-06T06:16:51;1.80;99.90
20891;DHT22;10605;52.968;8.844;2024-01-06T06:19:17;1.90;99.90
20891;DHT22;10605;52.968;8.844;2024-01-06T06:21:44;1.90;99.90
20891;DHT22;10605;52.968;8.844;2024-01-06T06:24:09;1.80;99.90
20891;DHT22;10605;52.968;8.844;2024-01-06T06:26:35;1.80;99.90
20891;DHT22;10605;52.968;8.844;2024-01-06T06:29:00;1.80;99.90
20891;DHT22;10605;52.968;8.844;2024-01-06T06:31:26;1.70;99.90
20891;DHT22;10605;52.968;8.844;2024-01-06T06:33:52;1.60;99.90
20891;DHT22;10605;52.968;8.844;2024-01-06T06:36:18;1.60;99.90
20891;DHT22;10605;52.968;8.844;2024-01-06T06:38:43;1.50;99.90
20891;DHT22;10605;52.968;8.844;2024-01-06T06:41:09;1.50;99.90
20891;DHT22;10605;52.968;8.844;2024-01-06T06:43:34;1.50;99.90
20891;DHT22;10605;52.968;8.844;2024-01-06T06:46:00;1.40;99.90
20891;DHT22;10605;52.968;8.844;2024-01-06T06:48:25;1.40;99.90
20891;DHT22;10605;52.968;8.844;2024-01-06T06:50:51;1.30;99.90
20891;DHT22;10605;52.968;8.844;2024-01-06T06:53:17;1.40;99.90
20891;DHT22;10605;52.968;8.844;2024-01-06T06:55:43;1.40;99.90
20891;DHT22;10605;52.968;8.844;2024-01-06T06:58:09;1.30;99.90
20891;DHT22;10605;52.968;8.844;2024-01-06T07:00:35;1.30;99.90
20891;DHT22;10605;52.968;8.844;2024-01-06T07:03:00;1.30;99.90
20891;DHT22;10605;52.968;8.844;2024-01-06T07:05:26;1.30;99.90
20891;DHT22;10605;52.968;8.844;2024-01-06T07:07:52;1.30;99.90
20891;DHT22;10605;52.968;8.844;2024-01-06T07:10:17;1.30;99.90
20891;DHT22;10605;52.968;8.844;2024-01-06T07:12:43;1.20;99.90
20891;DHT22;10605;52.968;8.844;2024-01-06T07:15:09;1.30;99.90
20891;DHT22;10605;52.968;8.844;2024-01-06T07:17:37;1.30;99.90
20891;DHT22;10605;52.968;8.844;2024-01-06T07:20:07;1.20;99.90
20891;DHT22;10605;52.968;8.844;2024-01-06T07:22:33;1.30;99.90
20891;DHT22;10605;52.968;8.844;2024-01-06T07:25:00;1.20;99.90
20891;DHT22;10605;52.968;8.844;2024-01-06T07:27:26;1.20;99.90
20891;DHT22;10605;52.968;8.844;2024-01-06T07:29:52;1.20;99.90
20891;DHT22;10605;52.968;8.844;2024-01-06T07:32:17;1.20;99.90
20891;DHT22;10605;52.968;8.844;2024-01-06T07:34:43;1.20;99.90
20891;DHT22;10605;52.968;8.844;2024-01-06T07:37:09;1.20;99.90
20891;DHT22;10605;52.968;8.844;2024-01-06T07:39:34;1.20;99.90
20891;DHT22;10605;52.968;8.844;2024-01-06T07:42:00;1.10;99.90
20891;DHT22;10605;52.968;8.844;2024-01-06T07:44:25;1.10;99.90
20891;DHT22;10605;52.968;8.844;2024-01-06T07:46:52;1.10;99.90
20891;DHT22;10605;52.968;8.844;2024-01-06T07:49:18;1.10;99.90
20891;DHT22;10605;52.968;8.844;2024-01-06T07:51:43;1.10;99.90
20891;DHT22;10605;52.968;8.844;2024-01-06T07:54:09;1.10;99.90
20891;DHT22;10605;52.968;8.844;2024-01-06T07:56:35;1.10;99.90
20891;DHT22;10605;52.968;8.844;2024-01-06T07:59:01;1.10;99.90
20891;DHT22;10605;52.968;8.844;2024-01-06T08:01:27;1.00;99.90
20891;DHT22;10605;52.968;8.844;2024-01-06T08:03:53;1.00;99.90
20891;DHT22;10605;52.968;8.844;2024-01-06T08:06:19;1.00;99.90
20891;DHT22;10605;52.968;8.844;2024-01-06T08:08:44;1.10;99.90
20891;DHT22;10605;52.968;8.844;2024-01-06T08:11:11;1.10;99.90
20891;DHT22;10605;52.968;8.844;2024-01-06T08:13:37;1.10;99.90
20891;DHT22;10605;52.968;8.844;2024-01-06T08:16:03;1.10;99.90
20891;DHT22;10605;52.968;8.844;2024-01-06T08:18:29;1.10;99.90
20891;DHT22;10605;52.968;8.844;2024-01-06T08:20:54;1.10;99.90
20891;DHT22;10605;52.968;8.844;2024-01-06T08:23:20;1.10;99.90
20891;DHT22;10605;52.968;8.844;2024-01-06T08:25:46;1.20;99.90
20891;DHT22;10605;52.968;8.844;2024-01-06T08:28:12;1.20;99.90
20891;DHT22;10605;52.968;8.844;2024-01-06T08:30:37;1.20;99.90
20891;DHT22;10605;52.968;8.844;2024-01-06T08:33:03;1.20;99.90
20891;DHT22;10605;52.968;8.844;2024-01-06T08:35:29;1.20;99.90
20891;DHT22;10605;52.968;8.844;2024-01-06T08:37:55;1.20;99.90
20891;DHT22;10605;52.968;8.844;2024-01-06T08:40:21;1.20;99.90
20891;DHT22;10605;52.968;8.844;2024-01-06T08:42:47;1.20;99.90
20891;DHT22;10605;52.968;8.844;2024-01-06T08:45:12;1.20;99.90
20891;DHT22;10605;52.968;8.844;2024-01-06T08:47:38;1.20;99.90
20891;DHT22;10605;52.968;8.844;2024-01-06T08:50:04;1.20;99.90
20891;DHT22;10605;52.968;8.844;2024-01-06T08:52:30;1.20;99.90
20891;DHT22;10605;52.968;8.844;2024-01-06T08:54:56;1.10;99.90
20891;DHT22;10605;52.968;8.844;2024-01-06T08:57:21;1.20;99.90
20891;DHT22;10605;52.968;8.844;2024-01-06T08:59:47;1.10;99.90
20891;DHT22;10605;52.968;8.844;2024-01-06T09:02:12;1.10;99.90
20891;DHT22;10605;52.968;8.844;2024-01-06T09:04:38;1.10;99.90
20891;DHT22;10605;52.968;8.844;2024-01-06T09:07:04;1.10;99.90
20891;DHT22;10605;52.968;8.844;2024-01-06T09:09:30;1.10;99.90
20891;DHT22;10605;52.968;8.844;2024-01-06T09:11:56;1.10;99.90
20891;DHT22;10605;52.968;8.844;2024-01-06T09:14:21;1.10;99.90
20891;DHT22;10605;52.968;8.844;2024-01-06T09:16:47;1.10;99.90
20891;DHT22;10605;52.968;8.844;2024-01-06T09:19:13;1.10;99.90
20891;DHT22;10605;52.968;8.844;2024-01-06T09:21:38;1.10;99.90
20891;DHT22;10605;52.968;8.844;2024-01-06T09:24:04;1.10;99.90
20891;DHT22;10605;52.968;8.844;2024-01-06T09:26:32;1.10;99.90
20891;DHT22;10605;52.968;8.844;2024-01-06T09:28:59;1.10;99.90
20891;DHT22;10605;52.968;8.844;2024-01-06T09:31:25;1.10;99.90
20891;DHT22;10605;52.968;8.844;2024-01-06T09:33:51;1.10;99.90
20891;DHT22;10605;52.968;8.844;2024-01-06T09:36:17;1.10;99.90
20891;DHT22;10605;52.968;8.844;2024-01-06T09:38:43;1.10;99.90
20891;DHT22;10605;52.968;8.844;2024-01-06T09:41:09;1.10;99.90
20891;DHT22;10605;52.968;8.844;2024-01-06T09:43:34;1.10;99.90
20891;DHT22;10605;52.968;8.844;2024-01-06T09:46:11;1.10;99.90
20891;DHT22;10605;52.968;8.844;2024-01-06T09:48:40;1.10;99.90
20891;DHT22;10605;52.968;8.844;2024-01-06T09:51:11;1.10;99.90
20891;DHT22;10605;52.968;8.844;2024-01-06T09:53:43;1.10;99.90
20891;DHT22;10605;52.968;8.844;2024-01-06T09:56:09;1.10;99.90
20891;DHT22;10605;52.968;8.844;2024-01-06T09:58:35;1.10;99.90
20891;DHT22;10605;52.968;8.844;2024-01-06T10:01:02;1.20;99.90
20891;DHT22;10605;52.968;8.844;2024-01-06T10:03:28;1.10;99.90
20891;DHT22;10605;52.968;8.844;2024-01-06T10:05:54;1.10;99.90
20891;DHT22;10605;52.968;8.844;2024-01-06T10:08:19;1.00;99.90
20891;DHT22;10605;52.968;8.844;2024-01-06T10:10:45;1.10;99.90
20891;DHT22;10605;52.968;8.844;2024-01-06T10:13:11;1.10;99.90
20891;DHT22;10605;52.968;8.844;2024-01-06T10:15:36;1.10;99.90
20891;DHT22;10605;52.968;8.844;2024-01-06T10:18:03;1.20;99.90
20891;DHT22;10605;52.968;8.844;2024-01-06T10:20:29;1.20;99.90
20891;DHT22;10605;52.968;8.844;2024-01-06T10:22:54;1.20;99.90
20891;DHT22;10605;52.968;8.844;2024-01-06T10:25:23;1.20;99.90
20891;DHT22;10605;52.968;8.844;2024-01-06T10:27:49;1.20;99.90
20891;DHT22;10605;52.968;8.844;2024-01-06T10:30:14;1.20;99.90
20891;DHT22;10605;52.968;8.844;2024-01-06T10:32:43;1.20;99.90
20891;DHT22;10605;52.968;8.844;2024-01-06T10:35:09;1.20;99.90
20891;DHT22;10605;52.968;8.844;2024-01-06T10:37:36;1.20;99.90
20891;DHT22;10605;52.968;8.844;2024-01-06T10:40:09;1.20;99.90
20891;DHT22;10605;52.968;8.844;2024-01-06T10:42:36;1.20;99.90
20891;DHT22;10605;52.968;8.844;2024-01-06T10:45:06;1.20;99.90
20891;DHT22;10605;52.968;8.844;2024-01-06T10:47:35;1.20;99.90
20891;DHT22;10605;52.968;8.844;2024-01-06T10:50:01;1.10;99.90
20891;DHT22;10605;52.968;8.844;2024-01-06T10:52:27;1.20;99.90
20891;DHT22;10605;52.968;8.844;2024-01-06T10:54:56;1.10;99.90
20891;DHT22;10605;52.968;8.844;2024-01-06T10:57:22;1.20;99.90
20891;DHT22;10605;52.968;8.844;2024-01-06T10:59:52;1.20;99.90
20891;DHT22;10605;52.968;8.844;2024-01-06T11:02:18;1.20;99.90
20891;DHT22;10605;52.968;8.844;2024-01-06T11:04:48;1.20;99.90
20891;DHT22;10605;52.968;8.844;2024-01-06T11:07:16;1.20;99.90
20891;DHT22;10605;52.968;8.844;2024-01-06T11:10:02;1.20;99.90
20891;DHT22;10605;52.968;8.844;2024-01-06T11:12:30;1.20;99.90
20891;DHT22;10605;52.968;8.844;2024-01-06T11:14:56;1.10;99.90
20891;DHT22;10605;52.968;8.844;2024-01-06T11:20:26;1.20;99.90
20891;DHT22;10605;52.968;8.844;2024-01-06T11:22:52;1.10;99.90
20891;DHT22;10605;52.968;8.844;2024-01-06T11:25:21;1.10;99.90
20891;DHT22;10605;52.968;8.844;2024-01-06T11:27:48;1.10;99.90
20891;DHT22;10605;52.968;8.844;2024-01-06T11:30:21;1.10;99.90
20891;DHT22;10605;52.968;8.844;2024-01-06T11:32:47;1.10;99.90
20891;DHT22;10605;52.968;8.844;2024-01-06T11:35:16;1.20;99.90
20891;DHT22;10605;52.968;8.844;2024-01-06T11:40:22;1.10;99.90
20891;DHT22;10605;52.968;8.844;2024-01-06T11:43:07;1.10;99.90
20891;DHT22;10605;52.968;8.844;2024-01-06T11:45:34;1.10;99.90
20891;DHT22;10605;52.968;8.844;2024-01-06T11:48:05;1.10;99.90
20891;DHT22;10605;52.968;8.844;2024-01-06T11:50:33;1.10;99.90
20891;DHT22;10605;52.968;8.844;2024-01-06T11:52:59;1.00;99.90
20891;DHT22;10605;52.968;8.844;2024-01-06T11:55:26;1.00;99.90
20891;DHT22;10605;52.968;8.844;2024-01-06T11:57:55;1.10;99.90
20891;DHT22;10605;52.968;8.844;2024-01-06T12:00:22;1.10;99.90
20891;DHT22;10605;52.968;8.844;2024-01-06T12:02:47;1.00;99.90
20891;DHT22;10605;52.968;8.844;2024-01-06T12:05:15;1.00;99.90
20891;DHT22;10605;52.968;8.844;2024-01-06T12:07:41;1.00;99.90
20891;DHT22;10605;52.968;8.844;2024-01-06T12:10:10;1.00;99.90
20891;DHT22;10605;52.968;8.844;2024-01-06T12:12:37;1.00;99.90
20891;DHT22;10605;52.968;8.844;2024-01-06T12:15:03;1.00;99.90
20891;DHT22;10605;52.968;8.844;2024-01-06T12:17:30;1.00;99.90
20891;DHT22;10605;52.968;8.844;2024-01-06T12:19:57;1.10;99.90
20891;DHT22;10605;52.968;8.844;2024-01-06T12:22:22;1.10;99.90
20891;DHT22;10605;52.968;8.844;2024-01-06T12:24:51;1.00;99.90
20891;DHT22;10605;52.968;8.844;2024-01-06T12:27:17;1.00;99.90
20891;DHT22;10605;52.968;8.844;2024-01-06T12:29:44;1.10;99.90
20891;DHT22;10605;52.968;8.844;2024-01-06T12:32:10;1.00;99.90
20891;DHT22;10605;52.968;8.844;2024-01-06T12:34:38;1.00;99.90
20891;DHT22;10605;52.968;8.844;2024-01-06T12:37:06;1.00;99.90
20891;DHT22;10605;52.968;8.844;2024-01-06T12:39:33;1.00;99.90
20891;DHT22;10605;52.968;8.844;2024-01-06T12:42:00;1.00;99.90
20891;DHT22;10605;52.968;8.844;2024-01-06T12:44:26;1.00;99.90
20891;DHT22;10605;52.968;8.844;2024-01-06T12:46:52;1.00;99.90
20891;DHT22;10605;52.968;8.844;2024-01-06T12:49:18;0.90;99.90
20891;DHT22;10605;52.968;8.844;2024-01-06T12:51:44;1.00;99.90
20891;DHT22;10605;52.968;8.844;2024-01-06T12:54:10;0.90;99.90
20891;DHT22;10605;52.968;8.844;2024-01-06T12:56:35;0.90;99.90
20891;DHT22;10605;52.968;8.844;2024-01-06T12:59:01;1.00;99.90
20891;DHT22;10605;52.968;8.844;2024-01-06T13:01:27;1.00;99.90
20891;DHT22;10605;52.968;8.844;2024-01-06T13:03:53;1.00;99.90
20891;DHT22;10605;52.968;8.844;2024-01-06T13:06:20;1.00;99.90
20891;DHT22;10605;52.968;8.844;2024-01-06T13:08:45;1.00;99.90
20891;DHT22;10605;52.968;8.844;2024-01-06T13:11:11;1.00;99.90
20891;DHT22;10605;52.968;8.844;2024-01-06T13:13:37;1.00;99.90
20891;DHT22;10605;52.968;8.844;2024-01-06T13:16:02;0.90;99.90
20891;DHT22;10605;52.968;8.844;2024-01-06T13:18:30;0.90;99.90
20891;DHT22;10605;52.968;8.844;2024-01-06T13:20:56;0.90;99.90
20891;DHT22;10605;52.968;8.844;2024-01-06T13:23:22;1.00;99.90
20891;DHT22;10605;52.968;8.844;2024-01-06T13:25:47;0.90;99.90
20891;DHT22;10605;52.968;8.844;2024-01-06T13:28:13;1.00;99.90
20891;DHT22;10605;52.968;8.844;2024-01-06T13:30:39;0.90;99.90
20891;DHT22;10605;52.968;8.844;2024-01-06T13:33:05;0.90;99.90
20891;DHT22;10605;52.968;8.844;2024-01-06T13:35:31;0.90;99.90
20891;DHT22;10605;52.968;8.844;2024-01-06T13:37:57;1.00;99.90
20891;DHT22;10605;52.968;8.844;2024-01-06T13:40:23;1.00;99.90
20891;DHT22;10605;52.968;8.844;2024-01-06T13:42:49;1.00;99.90
20891;DHT22;10605;52.968;8.844;2024-01-06T13:45:16;1.00;99.90
20891;DHT22;10605;52.968;8.844;2024-01-06T13:47:42;0.90;99.90
20891;DHT22;10605;52.968;8.844;2024-01-06T13:50:15;0.90;99.90
20891;DHT22;10605;52.968;8.844;2024-01-06T13:52:41;0.90;99.90
20891;DHT22;10605;52.968;8.844;2024-01-06T13:55:07;0.80;99.90
20891;DHT22;10605;52.968;8.844;2024-01-06T13:57:34;0.80;99.90
20891;DHT22;10605;52.968;8.844;2024-01-06T14:00:00;0.80;99.90
20891;DHT22;10605;52.968;8.844;2024-01-06T14:02:27;0.80;99.90
20891;DHT22;10605;52.968;8.844;2024-01-06T14:04:52;0.80;99.90
20891;DHT22;10605;52.968;8.844;2024-01-06T14:07:19;0.90;99.90
20891;DHT22;10605;52.968;8.844;2024-01-06T14:09:48;0.90;99.90
20891;DHT22;10605;52.968;8.844;2024-01-06T14:12:13;0.80;99.90
20891;DHT22;10605;52.968;8.844;2024-01-06T14:14:39;0.90;99.90
20891;DHT22;10605;52.968;8.844;2024-01-06T14:17:07;0.90;99.90
20891;DHT22;10605;52.968;8.844;2024-01-06T14:19:32;0.90;99.90
20891;DHT22;10605;52.968;8.844;2024-01-06T14:21:58;0.80;99.90
20891;DHT22;10605;52.968;8.844;2024-01-06T14:24:23;0.80;99.90
20891;DHT22;10605;52.968;8.844;2024-01-06T14:26:50;0.80;99.90
20891;DHT22;10605;52.968;8.844;2024-01-06T14:29:16;0.80;99.90
20891;DHT22;10605;52.968;8.844;2024-01-06T14:31:45;0.80;99.90
20891;DHT22;10605;52.968;8.844;2024-01-06T14:34:11;0.70;99.90
20891;DHT22;10605;52.968;8.844;2024-01-06T14:36:37;0.80;99.90
20891;DHT22;10605;52.968;8.844;2024-01-06T14:39:03;0.70;99.90
20891;DHT22;10605;52.968;8.844;2024-01-06T14:41:32;0.60;99.90
20891;DHT22;10605;52.968;8.844;2024-01-06T14:43:58;0.70;99.90
20891;DHT22;10605;52.968;8.844;2024-01-06T14:46:24;0.60;99.90
20891;DHT22;10605;52.968;8.844;2024-01-06T14:48:51;0.60;99.90
20891;DHT22;10605;52.968;8.844;2024-01-06T14:51:18;0.60;99.90
20891;DHT22;10605;52.968;8.844;2024-01-06T14:53:43;0.60;99.90
20891;DHT22;10605;52.968;8.844;2024-01-06T14:56:09;0.60;99.90
20891;DHT22;10605;52.968;8.844;2024-01-06T14:58:35;0.60;99.90
20891;DHT22;10605;52.968;8.844;2024-01-06T15:01:01;0.60;99.90
20891;DHT22;10605;52.968;8.844;2024-01-06T15:03:26;0.60;99.90
20891;DHT22;10605;52.968;8.844;2024-01-06T15:05:52;0.60;99.90
20891;DHT22;10605;52.968;8.844;2024-01-06T15:08:17;0.60;99.90
20891;DHT22;10605;52.968;8.844;2024-01-06T15:10:43;0.60;99.90
20891;DHT22;10605;52.968;8.844;2024-01-06T15:13:09;0.60;99.90
20891;DHT22;10605;52.968;8.844;2024-01-06T15:15:35;0.60;99.90
20891;DHT22;10605;52.968;8.844;2024-01-06T15:18:00;0.60;99.90
20891;DHT22;10605;52.968;8.844;2024-01-06T15:20:26;0.60;99.90
20891;DHT22;10605;52.968;8.844;2024-01-06T15:22:53;0.50;99.90
20891;DHT22;10605;52.968;8.844;2024-01-06T15:25:19;0.60;99.90
20891;DHT22;10605;52.968;8.844;2024-01-06T15:27:44;0.60;99.90
20891;DHT22;10605;52.968;8.844;2024-01-06T15:30:10;0.60;99.90
20891;DHT22;10605;52.968;8.844;2024-01-06T15:32:37;0.60;99.90
20891;DHT22;10605;52.968;8.844;2024-01-06T15:35:03;0.50;99.90
20891;DHT22;10605;52.968;8.844;2024-01-06T15:37:30;0.60;99.90
20891;DHT22;10605;52.968;8.844;2024-01-06T15:39:56;0.50;99.90
20891;DHT22;10605;52.968;8.844;2024-01-06T15:42:22;0.50;99.90
20891;DHT22;10605;52.968;8.844;2024-01-06T15:44:47;0.50;99.90